sensor_id;sensor_type;location;lat;lon;timestamp;P1;durP1;ratioP1;P2;durP2;ratioP2
83141;SDS011;75194;51.180;5.972;2024-03-29T00:02:03;3.80;;;0.40;;
83141;SDS011;75194;51.180;5.972;2024-03-29T00:04:29;2.90;;;0.82;;
83141;SDS011;75194;51.180;5.972;2024-03-29T00:06:54;1.88;;;0.20;;
83141;SDS011;75194;51.180;5.972;2024-03-29T00:09:20;3.90;;;0.40;;
83141;SDS011;75194;51.180;5.972;2024-03-29T00:11:46;5.22;;;0.40;;
83141;SDS011;75194;51.180;5.972;2024-03-29T00:14:11;4.47;;;0.35;;
83141;SDS011;75194;51.180;5.972;2024-03-29T00:16:37;3.90;;;0.30;;
83141;SDS011;75194;51.180;5.972;2024-03-29T00:19:02;2.90;;;0.40;;
83141;SDS011;75194;51.180;5.972;2024-03-29T00:21:28;4.28;;;1.08;;
83141;SDS011;75194;51.180;5.972;2024-03-29T00:23:53;3.28;;;0.47;;
83141;SDS011;75194;51.180;5.972;2024-03-29T00:26:19;3.38;;;0.40;;
83141;SDS011;75194;51.180;5.972;2024-03-29T00:28:45;3.17;;;0.45;;
83141;SDS011;75194;51.180;5.972;2024-03-29T00:31:10;5.53;;;0.50;;
83141;SDS011;75194;51.180;5.972;2024-03-29T00:33:36;2.83;;;0.32;;
83141;SDS011;75194;51.180;5.972;2024-03-29T00:36:02;7.30;;;0.82;;
83141;SDS011;75194;51.180;5.972;2024-03-29T00:38:27;2.70;;;0.35;;
83141;SDS011;75194;51.180;5.972;2024-03-29T00:40:53;2.15;;;0.35;;
83141;SDS011;75194;51.180;5.972;2024-03-29T00:43:19;2.65;;;0.32;;
83141;SDS011;75194;51.180;5.972;2024-03-29T00:45:44;2.88;;;0.45;;
83141;SDS011;75194;51.180;5.972;2024-03-29T00:48:10;2.40;;;0.52;;
83141;SDS011;75194;51.180;5.972;2024-03-29T00:50:36;3.25;;;0.32;;
83141;SDS011;75194;51.180;5.972;2024-03-29T00:53:03;4.30;;;0.40;;
83141;SDS011;75194;51.180;5.972;2024-03-29T00:55:29;3.95;;;0.35;;
83141;SDS011;75194;51.180;5.972;2024-03-29T00:57:55;3.33;;;0.50;;
83141;SDS011;75194;51.180;5.972;2024-03-29T01:00:21;4.00;;;0.40;;
83141;SDS011;75194;51.180;5.972;2024-03-29T01:02:46;2.88;;;0.30;;
83141;SDS011;75194;51.180;5.972;2024-03-29T01:05:12;4.53;;;0.60;;
83141;SDS011;75194;51.180;5.972;2024-03-29T01:07:40;4.18;;;0.43;;
83141;SDS011;75194;51.180;5.972;2024-03-29T01:10:06;2.67;;;0.40;;
83141;SDS011;75194;51.180;5.972;2024-03-29T01:12:33;2.70;;;0.30;;
83141;SDS011;75194;51.180;5.972;2024-03-29T01:15:00;4.53;;;0.65;;
83141;SDS011;75194;51.180;5.972;2024-03-29T01:17:26;2.92;;;0.55;;
83141;SDS011;75194;51.180;5.972;2024-03-29T01:19:51;2.53;;;0.40;;
83141;SDS011;75194;51.180;5.972;2024-03-29T01:22:17;4.72;;;0.80;;
83141;SDS011;75194;51.180;5.972;2024-03-29T01:24:42;5.57;;;0.52;;
83141;SDS011;75194;51.180;5.972;2024-03-29T01:27:08;3.92;;;0.40;;
83141;SDS011;75194;51.180;5.972;2024-03-29T01:29:34;3.33;;;0.30;;
83141;SDS011;75194;51.180;5.972;2024-03-29T01:31:59;2.83;;;0.73;;
83141;SDS011;75194;51.180;5.972;2024-03-29T01:34:25;4.30;;;0.40;;
83141;SDS011;75194;51.180;5.972;2024-03-29T01:36:50;3.45;;;0.55;;
83141;SDS011;75194;51.180;5.972;2024-03-29T01:39:16;3.40;;;0.40;;
83141;SDS011;75194;51.180;5.972;2024-03-29T01:41:44;4.22;;;0.50;;
83141;SDS011;75194;51.180;5.972;2024-03-29T01:44:10;1.63;;;0.32;;
83141;SDS011;75194;51.180;5.972;2024-03-29T01:46:36;2.25;;;0.35;;
83141;SDS011;75194;51.180;5.972;2024-03-29T01:49:03;3.58;;;0.50;;
83141;SDS011;75194;51.180;5.972;2024-03-29T01:51:30;4.28;;;0.60;;
83141;SDS011;75194;51.180;5.972;2024-03-29T01:53:56;4.47;;;0.50;;
83141;SDS011;75194;51.180;5.972;2024-03-29T01:56:25;4.53;;;0.43;;
83141;SDS011;75194;51.180;5.972;2024-03-29T01:58:52;2.25;;;0.40;;
83141;SDS011;75194;51.180;5.972;2024-03-29T02:01:20;4.47;;;0.50;;
83141;SDS011;75194;51.180;5.972;2024-03-29T02:03:46;3.28;;;1.10;;
83141;SDS011;75194;51.180;5.972;2024-03-29T02:06:13;3.42;;;0.50;;
83141;SDS011;75194;51.180;5.972;2024-03-29T02:08:39;3.88;;;0.57;;
83141;SDS011;75194;51.180;5.972;2024-03-29T02:11:04;4.03;;;0.70;;
83141;SDS011;75194;51.180;5.972;2024-03-29T02:15:57;4.70;;;0.63;;
83141;SDS011;75194;51.180;5.972;2024-03-29T02:18:23;2.10;;;0.40;;
83141;SDS011;75194;51.180;5.972;2024-03-29T02:20:48;3.13;;;0.32;;
83141;SDS011;75194;51.180;5.972;2024-03-29T02:23:16;2.30;;;0.35;;
83141;SDS011;75194;51.180;5.972;2024-03-29T02:25:45;4.68;;;0.40;;
83141;SDS011;75194;51.180;5.972;2024-03-29T02:28:11;3.95;;;0.30;;
83141;SDS011;75194;51.180;5.972;2024-03-29T02:30:43;2.15;;;0.40;;
83141;SDS011;75194;51.180;5.972;2024-03-29T02:33:12;2.50;;;0.40;;
83141;SDS011;75194;51.180;5.972;2024-03-29T02:35:37;2.53;;;0.35;;
83141;SDS011;75194;51.180;5.972;2024-03-29T02:38:03;4.00;;;0.40;;
83141;SDS011;75194;51.180;5.972;2024-03-29T02:40:29;3.03;;;0.28;;
83141;SDS011;75194;51.180;5.972;2024-03-29T02:43:00;2.22;;;0.30;;
83141;SDS011;75194;51.180;5.972;2024-03-29T02:45:29;2.63;;;0.35;;
83141;SDS011;75194;51.180;5.972;2024-03-29T02:47:54;1.75;;;0.32;;
83141;SDS011;75194;51.180;5.972;2024-03-29T02:50:20;3.97;;;0.40;;
83141;SDS011;75194;51.180;5.972;2024-03-29T02:52:47;3.25;;;0.30;;
83141;SDS011;75194;51.180;5.972;2024-03-29T02:55:12;3.22;;;0.30;;
83141;SDS011;75194;51.180;5.972;2024-03-29T02:57:38;4.78;;;0.60;;
83141;SDS011;75194;51.180;5.972;2024-03-29T03:00:05;3.78;;;0.40;;
83141;SDS011;75194;51.180;5.972;2024-03-29T03:02:31;0.93;;;0.30;;
83141;SDS011;75194;51.180;5.972;2024-03-29T03:04:57;1.77;;;0.20;;
83141;SDS011;75194;51.180;5.972;2024-03-29T03:07:25;3.60;;;0.57;;
83141;SDS011;75194;51.180;5.972;2024-03-29T03:10:09;3.40;;;0.20;;
83141;SDS011;75194;51.180;5.972;2024-03-29T03:12:53;1.60;;;0.30;;
83141;SDS011;75194;51.180;5.972;2024-03-29T03:15:25;1.58;;;0.20;;
83141;SDS011;75194;51.180;5.972;2024-03-29T03:18:01;4.22;;;0.30;;
83141;SDS011;75194;51.180;5.972;2024-03-29T03:20:26;1.52;;;0.20;;
83141;SDS011;75194;51.180;5.972;2024-03-29T03:22:55;1.63;;;0.20;;
83141;SDS011;75194;51.180;5.972;2024-03-29T03:25:22;1.63;;;0.22;;
83141;SDS011;75194;51.180;5.972;2024-03-29T03:27:48;3.38;;;0.30;;
83141;SDS011;75194;51.180;5.972;2024-03-29T03:30:18;3.08;;;0.60;;
83141;SDS011;75194;51.180;5.972;2024-03-29T03:32:43;2.55;;;0.38;;
83141;SDS011;75194;51.180;5.972;2024-03-29T03:35:09;1.55;;;0.30;;
83141;SDS011;75194;51.180;5.972;2024-03-29T03:37:35;4.05;;;0.40;;
83141;SDS011;75194;51.180;5.972;2024-03-29T03:40:00;2.58;;;0.50;;
83141;SDS011;75194;51.180;5.972;2024-03-29T03:42:26;3.92;;;0.45;;
83141;SDS011;75194;51.180;5.972;2024-03-29T03:44:51;3.20;;;0.30;;
83141;SDS011;75194;51.180;5.972;2024-03-29T03:47:17;3.40;;;0.30;;
83141;SDS011;75194;51.180;5.972;2024-03-29T03:49:43;1.70;;;0.30;;
83141;SDS011;75194;51.180;5.972;2024-03-29T03:52:09;3.75;;;0.40;;
83141;SDS011;75194;51.180;5.972;2024-03-29T03:54:34;3.53;;;0.30;;
83141;SDS011;75194;51.180;5.972;2024-03-29T03:57:00;2.50;;;0.35;;
83141;SDS011;75194;51.180;5.972;2024-03-29T03:59:26;4.10;;;0.40;;
83141;SDS011;75194;51.180;5.972;2024-03-29T04:01:51;2.08;;;0.50;;
83141;SDS011;75194;51.180;5.972;2024-03-29T04:04:20;3.38;;;0.40;;
83141;SDS011;75194;51.180;5.972;2024-03-29T04:09:13;2.55;;;0.60;;
83141;SDS011;75194;51.180;5.972;2024-03-29T04:11:41;2.75;;;0.40;;
83141;SDS011;75194;51.180;5.972;2024-03-29T04:14:08;3.05;;;0.35;;
83141;SDS011;75194;51.180;5.972;2024-03-29T04:16:34;4.55;;;0.50;;
83141;SDS011;75194;51.180;5.972;2024-03-29T04:19:02;2.97;;;0.50;;
83141;SDS011;75194;51.180;5.972;2024-03-29T04:21:30;2.95;;;0.30;;
83141;SDS011;75194;51.180;5.972;2024-03-29T04:24:14;1.98;;;0.30;;
83141;SDS011;75194;51.180;5.972;2024-03-29T04:26:43;2.63;;;0.40;;
83141;SDS011;75194;51.180;5.972;2024-03-29T04:29:09;3.63;;;0.40;;
83141;SDS011;75194;51.180;5.972;2024-03-29T04:31:35;1.92;;;0.32;;
83141;SDS011;75194;51.180;5.972;2024-03-29T04:34:04;5.05;;;0.60;;
83141;SDS011;75194;51.180;5.972;2024-03-29T04:36:29;3.05;;;0.30;;
83141;SDS011;75194;51.180;5.972;2024-03-29T04:38:55;2.72;;;0.40;;
83141;SDS011;75194;51.180;5.972;2024-03-29T04:41:21;2.58;;;0.45;;
83141;SDS011;75194;51.180;5.972;2024-03-29T04:43:46;2.72;;;0.50;;
83141;SDS011;75194;51.180;5.972;2024-03-29T04:46:18;3.60;;;0.50;;
83141;SDS011;75194;51.180;5.972;2024-03-29T04:48:44;2.63;;;0.30;;
83141;SDS011;75194;51.180;5.972;2024-03-29T04:51:11;3.72;;;0.40;;
83141;SDS011;75194;51.180;5.972;2024-03-29T04:53:37;2.55;;;0.40;;
83141;SDS011;75194;51.180;5.972;2024-03-29T04:56:07;4.35;;;0.47;;
83141;SDS011;75194;51.180;5.972;2024-03-29T04:58:45;3.60;;;0.60;;
83141;SDS011;75194;51.180;5.972;2024-03-29T05:01:13;3.45;;;0.57;;
83141;SDS011;75194;51.180;5.972;2024-03-29T05:03:39;4.82;;;0.60;;
83141;SDS011;75194;51.180;5.972;2024-03-29T05:06:04;1.67;;;0.22;;
83141;SDS011;75194;51.180;5.972;2024-03-29T05:08:30;3.50;;;0.40;;
83141;SDS011;75194;51.180;5.972;2024-03-29T05:10:56;3.15;;;0.70;;
83141;SDS011;75194;51.180;5.972;2024-03-29T05:13:21;2.13;;;0.30;;
83141;SDS011;75194;51.180;5.972;2024-03-29T05:15:47;2.60;;;0.30;;
83141;SDS011;75194;51.180;5.972;2024-03-29T05:18:16;2.80;;;0.40;;
83141;SDS011;75194;51.180;5.972;2024-03-29T05:23:29;3.28;;;0.47;;
83141;SDS011;75194;51.180;5.972;2024-03-29T05:25:55;3.03;;;0.35;;
83141;SDS011;75194;51.180;5.972;2024-03-29T05:28:23;2.78;;;0.30;;
83141;SDS011;75194;51.180;5.972;2024-03-29T05:31:43;4.65;;;0.50;;
83141;SDS011;75194;51.180;5.972;2024-03-29T05:33:53;2.60;;;0.40;;
83141;SDS011;75194;51.180;5.972;2024-03-29T05:36:25;1.77;;;0.30;;
83141;SDS011;75194;51.180;5.972;2024-03-29T05:38:51;4.38;;;0.60;;
83141;SDS011;75194;51.180;5.972;2024-03-29T05:41:16;2.95;;;0.40;;
83141;SDS011;75194;51.180;5.972;2024-03-29T05:43:42;4.85;;;0.88;;
83141;SDS011;75194;51.180;5.972;2024-03-29T05:46:08;3.95;;;0.63;;
83141;SDS011;75194;51.180;5.972;2024-03-29T05:48:33;3.05;;;0.40;;
83141;SDS011;75194;51.180;5.972;2024-03-29T05:51:00;3.92;;;0.43;;
83141;SDS011;75194;51.180;5.972;2024-03-29T05:53:28;3.33;;;0.30;;
83141;SDS011;75194;51.180;5.972;2024-03-29T05:56:21;3.15;;;0.60;;
83141;SDS011;75194;51.180;5.972;2024-03-29T05:58:50;3.10;;;0.50;;
83141;SDS011;75194;51.180;5.972;2024-03-29T06:01:40;4.07;;;0.40;;
83141;SDS011;75194;51.180;5.972;2024-03-29T06:04:31;5.03;;;0.50;;
83141;SDS011;75194;51.180;5.972;2024-03-29T06:07:03;4.75;;;0.73;;
83141;SDS011;75194;51.180;5.972;2024-03-29T06:09:30;3.90;;;0.77;;
83141;SDS011;75194;51.180;5.972;2024-03-29T06:11:58;5.50;;;0.82;;
83141;SDS011;75194;51.180;5.972;2024-03-29T06:14:24;3.58;;;0.50;;
83141;SDS011;75194;51.180;5.972;2024-03-29T06:17:08;3.10;;;0.50;;
83141;SDS011;75194;51.180;5.972;2024-03-29T06:22:22;3.40;;;0.60;;
83141;SDS011;75194;51.180;5.972;2024-03-29T06:24:49;2.60;;;0.50;;
83141;SDS011;75194;51.180;5.972;2024-03-29T06:27:17;4.28;;;0.68;;
83141;SDS011;75194;51.180;5.972;2024-03-29T06:29:44;4.40;;;0.40;;
83141;SDS011;75194;51.180;5.972;2024-03-29T06:32:10;4.85;;;0.63;;
83141;SDS011;75194;51.180;5.972;2024-03-29T06:34:35;3.83;;;0.50;;
83141;SDS011;75194;51.180;5.972;2024-03-29T06:37:01;4.55;;;0.88;;
83141;SDS011;75194;51.180;5.972;2024-03-29T06:39:27;4.00;;;0.60;;
83141;SDS011;75194;51.180;5.972;2024-03-29T06:41:53;3.40;;;0.75;;
83141;SDS011;75194;51.180;5.972;2024-03-29T06:44:19;5.55;;;0.73;;
83141;SDS011;75194;51.180;5.972;2024-03-29T06:46:45;4.82;;;0.80;;
83141;SDS011;75194;51.180;5.972;2024-03-29T06:49:11;5.22;;;0.70;;
83141;SDS011;75194;51.180;5.972;2024-03-29T06:51:38;5.82;;;0.80;;
83141;SDS011;75194;51.180;5.972;2024-03-29T06:54:05;3.88;;;0.80;;
83141;SDS011;75194;51.180;5.972;2024-03-29T06:56:31;5.47;;;0.95;;
83141;SDS011;75194;51.180;5.972;2024-03-29T06:58:56;6.72;;;0.85;;
83141;SDS011;75194;51.180;5.972;2024-03-29T07:01:22;5.88;;;0.90;;
83141;SDS011;75194;51.180;5.972;2024-03-29T07:03:47;4.80;;;0.98;;
83141;SDS011;75194;51.180;5.972;2024-03-29T07:06:13;5.53;;;0.98;;
83141;SDS011;75194;51.180;5.972;2024-03-29T07:08:39;3.88;;;0.82;;
83141;SDS011;75194;51.180;5.972;2024-03-29T07:11:04;3.45;;;0.73;;
83141;SDS011;75194;51.180;5.972;2024-03-29T07:13:30;5.30;;;1.10;;
83141;SDS011;75194;51.180;5.972;2024-03-29T07:15:56;5.88;;;0.80;;
83141;SDS011;75194;51.180;5.972;2024-03-29T07:18:25;4.65;;;0.73;;
83141;SDS011;75194;51.180;5.972;2024-03-29T07:20:51;4.65;;;0.73;;
83141;SDS011;75194;51.180;5.972;2024-03-29T07:23:17;3.75;;;0.88;;
83141;SDS011;75194;51.180;5.972;2024-03-29T07:25:44;5.82;;;1.23;;
83141;SDS011;75194;51.180;5.972;2024-03-29T07:28:10;4.45;;;0.80;;
83141;SDS011;75194;51.180;5.972;2024-03-29T07:30:39;5.63;;;0.70;;
83141;SDS011;75194;51.180;5.972;2024-03-29T07:33:09;3.47;;;0.60;;
83141;SDS011;75194;51.180;5.972;2024-03-29T07:35:35;4.85;;;0.65;;
83141;SDS011;75194;51.180;5.972;2024-03-29T07:38:01;4.03;;;0.98;;
83141;SDS011;75194;51.180;5.972;2024-03-29T07:40:27;4.18;;;0.70;;
83141;SDS011;75194;51.180;5.972;2024-03-29T07:42:52;4.40;;;0.82;;
83141;SDS011;75194;51.180;5.972;2024-03-29T07:45:18;5.32;;;0.60;;
83141;SDS011;75194;51.180;5.972;2024-03-29T07:47:43;6.53;;;0.80;;
83141;SDS011;75194;51.180;5.972;2024-03-29T07:50:09;5.38;;;0.80;;
83141;SDS011;75194;51.180;5.972;2024-03-29T07:52:35;4.65;;;0.82;;
83141;SDS011;75194;51.180;5.972;2024-03-29T07:55:01;4.57;;;0.93;;
83141;SDS011;75194;51.180;5.972;2024-03-29T07:57:26;4.07;;;0.93;;
83141;SDS011;75194;51.180;5.972;2024-03-29T07:59:52;4.32;;;0.90;;
83141;SDS011;75194;51.180;5.972;2024-03-29T08:02:17;4.35;;;0.70;;
83141;SDS011;75194;51.180;5.972;2024-03-29T08:04:43;5.88;;;1.05;;
83141;SDS011;75194;51.180;5.972;2024-03-29T08:07:09;3.17;;;0.55;;
83141;SDS011;75194;51.180;5.972;2024-03-29T08:09:36;4.82;;;0.80;;
83141;SDS011;75194;51.180;5.972;2024-03-29T08:12:04;4.53;;;1.00;;
83141;SDS011;75194;51.180;5.972;2024-03-29T08:14:30;4.10;;;0.77;;
83141;SDS011;75194;51.180;5.972;2024-03-29T08:16:59;5.80;;;0.88;;
83141;SDS011;75194;51.180;5.972;2024-03-29T08:19:29;3.38;;;0.75;;
83141;SDS011;75194;51.180;5.972;2024-03-29T08:21:55;5.50;;;0.98;;
83141;SDS011;75194;51.180;5.972;2024-03-29T08:24:20;5.57;;;0.95;;
83141;SDS011;75194;51.180;5.972;2024-03-29T08:26:46;7.32;;;0.85;;
83141;SDS011;75194;51.180;5.972;2024-03-29T08:29:12;4.60;;;0.70;;
83141;SDS011;75194;51.180;5.972;2024-03-29T08:31:38;3.53;;;0.80;;
83141;SDS011;75194;51.180;5.972;2024-03-29T08:34:03;4.78;;;1.00;;
83141;SDS011;75194;51.180;5.972;2024-03-29T08:36:31;4.97;;;0.85;;
83141;SDS011;75194;51.180;5.972;2024-03-29T08:38:57;5.25;;;1.00;;
83141;SDS011;75194;51.180;5.972;2024-03-29T08:41:26;4.93;;;1.00;;
83141;SDS011;75194;51.180;5.972;2024-03-29T08:43:51;4.40;;;1.23;;
83141;SDS011;75194;51.180;5.972;2024-03-29T08:46:17;6.65;;;1.00;;
83141;SDS011;75194;51.180;5.972;2024-03-29T08:48:43;4.15;;;0.75;;
83141;SDS011;75194;51.180;5.972;2024-03-29T08:51:09;3.80;;;0.90;;
83141;SDS011;75194;51.180;5.972;2024-03-29T08:53:35;5.80;;;1.00;;
83141;SDS011;75194;51.180;5.972;2024-03-29T08:56:01;3.90;;;0.90;;
83141;SDS011;75194;51.180;5.972;2024-03-29T08:58:26;5.07;;;0.70;;
83141;SDS011;75194;51.180;5.972;2024-03-29T09:00:53;3.50;;;0.80;;
83141;SDS011;75194;51.180;5.972;2024-03-29T09:03:20;4.78;;;1.00;;
83141;SDS011;75194;51.180;5.972;2024-03-29T09:05:47;4.43;;;0.90;;
83141;SDS011;75194;51.180;5.972;2024-03-29T09:08:12;4.78;;;1.20;;
83141;SDS011;75194;51.180;5.972;2024-03-29T09:10:38;4.53;;;0.95;;
83141;SDS011;75194;51.180;5.972;2024-03-29T09:13:03;5.93;;;1.05;;
83141;SDS011;75194;51.180;5.972;2024-03-29T09:15:32;4.68;;;0.80;;
83141;SDS011;75194;51.180;5.972;2024-03-29T09:17:58;5.15;;;0.80;;
83141;SDS011;75194;51.180;5.972;2024-03-29T09:20:27;4.07;;;0.98;;
83141;SDS011;75194;51.180;5.972;2024-03-29T09:22:53;4.63;;;1.10;;
83141;SDS011;75194;51.180;5.972;2024-03-29T09:25:19;3.88;;;0.85;;
83141;SDS011;75194;51.180;5.972;2024-03-29T09:27:45;4.00;;;0.85;;
83141;SDS011;75194;51.180;5.972;2024-03-29T09:30:12;3.67;;;0.73;;
83141;SDS011;75194;51.180;5.972;2024-03-29T09:32:40;5.93;;;1.50;;
83141;SDS011;75194;51.180;5.972;2024-03-29T09:35:06;5.03;;;0.75;;
83141;SDS011;75194;51.180;5.972;2024-03-29T09:37:32;3.92;;;0.82;;
83141;SDS011;75194;51.180;5.972;2024-03-29T09:40:04;4.05;;;1.05;;
83141;SDS011;75194;51.180;5.972;2024-03-29T09:42:31;3.85;;;0.85;;
83141;SDS011;75194;51.180;5.972;2024-03-29T09:44:58;4.97;;;0.77;;
83141;SDS011;75194;51.180;5.972;2024-03-29T09:47:26;3.83;;;0.80;;
83141;SDS011;75194;51.180;5.972;2024-03-29T09:49:55;3.40;;;0.80;;
83141;SDS011;75194;51.180;5.972;2024-03-29T09:52:23;3.80;;;0.93;;
83141;SDS011;75194;51.180;5.972;2024-03-29T09:54:49;3.60;;;0.95;;
83141;SDS011;75194;51.180;5.972;2024-03-29T09:57:16;4.18;;;0.93;;
83141;SDS011;75194;51.180;5.972;2024-03-29T09:59:42;2.80;;;0.68;;
83141;SDS011;75194;51.180;5.972;2024-03-29T10:02:19;5.03;;;1.13;;
83141;SDS011;75194;51.180;5.972;2024-03-29T10:04:51;4.32;;;1.00;;
83141;SDS011;75194;51.180;5.972;2024-03-29T10:07:23;3.17;;;0.73;;
83141;SDS011;75194;51.180;5.972;2024-03-29T10:09:49;4.70;;;0.70;;
83141;SDS011;75194;51.180;5.972;2024-03-29T10:12:16;4.63;;;0.88;;
83141;SDS011;75194;51.180;5.972;2024-03-29T10:14:46;3.97;;;0.80;;
83141;SDS011;75194;51.180;5.972;2024-03-29T10:17:18;4.78;;;1.10;;
83141;SDS011;75194;51.180;5.972;2024-03-29T10:19:44;3.88;;;0.60;;
83141;SDS011;75194;51.180;5.972;2024-03-29T10:22:10;4.20;;;0.80;;
83141;SDS011;75194;51.180;5.972;2024-03-29T10:24:36;4.40;;;0.60;;
83141;SDS011;75194;51.180;5.972;2024-03-29T10:27:02;4.55;;;0.70;;
83141;SDS011;75194;51.180;5.972;2024-03-29T10:29:29;2.55;;;0.57;;
83141;SDS011;75194;51.180;5.972;2024-03-29T10:31:57;3.90;;;0.70;;
83141;SDS011;75194;51.180;5.972;2024-03-29T10:34:26;2.42;;;0.65;;
83141;SDS011;75194;51.180;5.972;2024-03-29T10:36:52;3.92;;;0.50;;
83141;SDS011;75194;51.180;5.972;2024-03-29T10:39:18;3.72;;;0.60;;
83141;SDS011;75194;51.180;5.972;2024-03-29T10:41:46;4.05;;;0.57;;
83141;SDS011;75194;51.180;5.972;2024-03-29T10:44:14;2.65;;;0.47;;
83141;SDS011;75194;51.180;5.972;2024-03-29T10:46:40;2.97;;;0.55;;
83141;SDS011;75194;51.180;5.972;2024-03-29T10:49:13;3.60;;;0.55;;
83141;SDS011;75194;51.180;5.972;2024-03-29T10:51:43;3.97;;;0.70;;
83141;SDS011;75194;51.180;5.972;2024-03-29T10:54:09;4.05;;;0.60;;
83141;SDS011;75194;51.180;5.972;2024-03-29T10:56:36;3.45;;;0.40;;
83141;SDS011;75194;51.180;5.972;2024-03-29T10:59:16;2.25;;;0.43;;
83141;SDS011;75194;51.180;5.972;2024-03-29T11:01:43;2.92;;;0.47;;
83141;SDS011;75194;51.180;5.972;2024-03-29T11:04:20;3.65;;;0.60;;
83141;SDS011;75194;51.180;5.972;2024-03-29T11:06:49;2.97;;;0.50;;
83141;SDS011;75194;51.180;5.972;2024-03-29T11:09:19;3.65;;;0.40;;
83141;SDS011;75194;51.180;5.972;2024-03-29T11:11:48;2.03;;;0.40;;
83141;SDS011;75194;51.180;5.972;2024-03-29T11:14:18;4.47;;;0.63;;
83141;SDS011;75194;51.180;5.972;2024-03-29T11:19:17;2.85;;;0.55;;
83141;SDS011;75194;51.180;5.972;2024-03-29T11:21:43;3.45;;;0.73;;
83141;SDS011;75194;51.180;5.972;2024-03-29T11:24:15;3.33;;;0.50;;
83141;SDS011;75194;51.180;5.972;2024-03-29T11:26:44;3.97;;;0.57;;
83141;SDS011;75194;51.180;5.972;2024-03-29T11:29:20;3.40;;;0.30;;
83141;SDS011;75194;51.180;5.972;2024-03-29T11:31:47;2.58;;;0.30;;
83141;SDS011;75194;51.180;5.972;2024-03-29T11:34:18;3.20;;;0.52;;
83141;SDS011;75194;51.180;5.972;2024-03-29T11:36:45;2.38;;;0.63;;
83141;SDS011;75194;51.180;5.972;2024-03-29T11:39:19;2.13;;;0.40;;
83141;SDS011;75194;51.180;5.972;2024-03-29T11:41:49;2.13;;;0.50;;
83141;SDS011;75194;51.180;5.972;2024-03-29T11:44:15;2.95;;;0.43;;
83141;SDS011;75194;51.180;5.972;2024-03-29T11:46:42;2.90;;;0.50;;
83141;SDS011;75194;51.180;5.972;2024-03-29T11:49:09;3.33;;;0.45;;
83141;SDS011;75194;51.180;5.972;2024-03-29T11:51:35;2.85;;;0.40;;
83141;SDS011;75194;51.180;5.972;2024-03-29T11:54:01;3.33;;;0.40;;
83141;SDS011;75194;51.180;5.972;2024-03-29T11:56:27;3.97;;;0.43;;
83141;SDS011;75194;51.180;5.972;2024-03-29T11:58:53;3.58;;;0.45;;
83141;SDS011;75194;51.180;5.972;2024-03-29T12:01:24;2.75;;;0.38;;
83141;SDS011;75194;51.180;5.972;2024-03-29T12:03:50;2.47;;;0.32;;
83141;SDS011;75194;51.180;5.972;2024-03-29T12:06:16;2.92;;;1.10;;
83141;SDS011;75194;51.180;5.972;2024-03-29T12:08:43;2.45;;;0.30;;
83141;SDS011;75194;51.180;5.972;2024-03-29T12:11:09;2.78;;;0.50;;
83141;SDS011;75194;51.180;5.972;2024-03-29T12:13:35;2.17;;;0.60;;
83141;SDS011;75194;51.180;5.972;2024-03-29T12:16:01;3.30;;;0.52;;
83141;SDS011;75194;51.180;5.972;2024-03-29T12:18:28;3.40;;;0.63;;
83141;SDS011;75194;51.180;5.972;2024-03-29T12:20:57;4.50;;;0.57;;
83141;SDS011;75194;51.180;5.972;2024-03-29T12:23:23;2.65;;;0.40;;
83141;SDS011;75194;51.180;5.972;2024-03-29T12:25:49;4.30;;;0.52;;
83141;SDS011;75194;51.180;5.972;2024-03-29T12:28:18;4.43;;;0.88;;
83141;SDS011;75194;51.180;5.972;2024-03-29T12:30:44;2.20;;;0.57;;
83141;SDS011;75194;51.180;5.972;2024-03-29T12:33:11;2.58;;;0.43;;
83141;SDS011;75194;51.180;5.972;2024-03-29T12:35:44;2.50;;;0.50;;
83141;SDS011;75194;51.180;5.972;2024-03-29T12:40:44;2.92;;;0.52;;
83141;SDS011;75194;51.180;5.972;2024-03-29T12:43:13;3.85;;;0.40;;
83141;SDS011;75194;51.180;5.972;2024-03-29T12:45:40;3.22;;;0.55;;
83141;SDS011;75194;51.180;5.972;2024-03-29T12:50:40;3.70;;;0.50;;
83141;SDS011;75194;51.180;5.972;2024-03-29T12:53:07;2.35;;;0.47;;
83141;SDS011;75194;51.180;5.972;2024-03-29T12:55:34;2.78;;;0.55;;
83141;SDS011;75194;51.180;5.972;2024-03-29T12:58:04;2.47;;;0.30;;
83141;SDS011;75194;51.180;5.972;2024-03-29T13:00:33;3.00;;;0.55;;
83141;SDS011;75194;51.180;5.972;2024-03-29T13:03:03;2.33;;;0.52;;
83141;SDS011;75194;51.180;5.972;2024-03-29T13:05:30;2.80;;;0.45;;
83141;SDS011;75194;51.180;5.972;2024-03-29T13:08:03;2.95;;;0.43;;
83141;SDS011;75194;51.180;5.972;2024-03-29T13:10:44;3.80;;;0.50;;
83141;SDS011;75194;51.180;5.972;2024-03-29T13:13:09;3.95;;;0.40;;
83141;SDS011;75194;51.180;5.972;2024-03-29T13:15:36;2.08;;;0.50;;
83141;SDS011;75194;51.180;5.972;2024-03-29T13:18:03;1.98;;;0.20;;
83141;SDS011;75194;51.180;5.972;2024-03-29T13:20:30;2.05;;;0.40;;
83141;SDS011;75194;51.180;5.972;2024-03-29T13:22:58;2.05;;;0.77;;
83141;SDS011;75194;51.180;5.972;2024-03-29T13:25:25;2.45;;;0.40;;
83141;SDS011;75194;51.180;5.972;2024-03-29T13:27:52;2.90;;;0.52;;
83141;SDS011;75194;51.180;5.972;2024-03-29T13:30:20;3.15;;;0.52;;
83141;SDS011;75194;51.180;5.972;2024-03-29T13:32:46;2.67;;;0.55;;
83141;SDS011;75194;51.180;5.972;2024-03-29T13:35:12;2.85;;;0.35;;
83141;SDS011;75194;51.180;5.972;2024-03-29T13:37:42;1.85;;;0.20;;
83141;SDS011;75194;51.180;5.972;2024-03-29T13:40:08;2.65;;;0.32;;
83141;SDS011;75194;51.180;5.972;2024-03-29T13:42:36;2.83;;;0.35;;
83141;SDS011;75194;51.180;5.972;2024-03-29T13:45:02;3.65;;;0.60;;
83141;SDS011;75194;51.180;5.972;2024-03-29T13:47:35;2.75;;;0.60;;
83141;SDS011;75194;51.180;5.972;2024-03-29T13:50:02;3.75;;;0.32;;
83141;SDS011;75194;51.180;5.972;2024-03-29T13:52:29;2.53;;;0.50;;
83141;SDS011;75194;51.180;5.972;2024-03-29T13:54:55;2.80;;;0.40;;
83141;SDS011;75194;51.180;5.972;2024-03-29T13:57:21;2.63;;;0.60;;
83141;SDS011;75194;51.180;5.972;2024-03-29T13:59:46;2.95;;;0.30;;
83141;SDS011;75194;51.180;5.972;2024-03-29T14:02:13;3.05;;;0.43;;
83141;SDS011;75194;51.180;5.972;2024-03-29T14:04:40;2.88;;;0.45;;
83141;SDS011;75194;51.180;5.972;2024-03-29T14:07:07;1.55;;;0.30;;
83141;SDS011;75194;51.180;5.972;2024-03-29T14:09:35;2.22;;;0.30;;
83141;SDS011;75194;51.180;5.972;2024-03-29T14:12:05;1.80;;;0.25;;
83141;SDS011;75194;51.180;5.972;2024-03-29T14:14:31;1.77;;;0.30;;
83141;SDS011;75194;51.180;5.972;2024-03-29T14:16:57;1.77;;;0.35;;
83141;SDS011;75194;51.180;5.972;2024-03-29T14:19:23;3.25;;;0.63;;
83141;SDS011;75194;51.180;5.972;2024-03-29T14:21:51;3.35;;;0.60;;
83141;SDS011;75194;51.180;5.972;2024-03-29T14:24:17;2.85;;;0.63;;
83141;SDS011;75194;51.180;5.972;2024-03-29T14:26:42;2.13;;;0.60;;
83141;SDS011;75194;51.180;5.972;2024-03-29T14:29:08;2.38;;;0.45;;
83141;SDS011;75194;51.180;5.972;2024-03-29T14:31:36;2.25;;;0.32;;
83141;SDS011;75194;51.180;5.972;2024-03-29T14:34:02;2.63;;;0.93;;
83141;SDS011;75194;51.180;5.972;2024-03-29T14:36:28;3.72;;;0.50;;
83141;SDS011;75194;51.180;5.972;2024-03-29T14:38:57;3.10;;;0.47;;
83141;SDS011;75194;51.180;5.972;2024-03-29T14:41:25;4.10;;;0.40;;
83141;SDS011;75194;51.180;5.972;2024-03-29T14:43:51;2.53;;;0.30;;
83141;SDS011;75194;51.180;5.972;2024-03-29T14:46:17;2.22;;;0.55;;
83141;SDS011;75194;51.180;5.972;2024-03-29T14:48:45;3.97;;;0.52;;
83141;SDS011;75194;51.180;5.972;2024-03-29T14:51:11;3.03;;;0.50;;
83141;SDS011;75194;51.180;5.972;2024-03-29T14:53:37;2.45;;;0.30;;
83141;SDS011;75194;51.180;5.972;2024-03-29T14:56:03;4.70;;;0.70;;
83141;SDS011;75194;51.180;5.972;2024-03-29T14:58:29;2.47;;;0.32;;
83141;SDS011;75194;51.180;5.972;2024-03-29T15:00:54;2.67;;;0.28;;
83141;SDS011;75194;51.180;5.972;2024-03-29T15:03:20;2.25;;;0.40;;
83141;SDS011;75194;51.180;5.972;2024-03-29T15:05:45;3.17;;;0.52;;
83141;SDS011;75194;51.180;5.972;2024-03-29T15:08:11;3.70;;;0.60;;